Time;durP1;ratioP1;P1;durP2;ratioP2;P2;SDS_P1;SDS_P2;PMS_P1;PMS_P2;Temp;Humidity;BMP_temperature;BMP_pressure;BME280_temperature;BME280_humidity;BME280_pressure;Samples;Min_cycle;Max_cycle;Signal;HPM_P1;HPM_P2
2023/02/24 00:01:17;;;;;;;44.40;26.88;;;;;;;8.40;100.00;100033.44;5001492;28;20034;-68
2023/02/24 00:03:43;;;;;;;37.03;24.23;;;;;;;8.34;100.00;100029.03;5007550;28;20034;-68
2023/02/24 00:06:10;;;;;;;36.38;22.90;;;;;;;8.34;100.00;100029.03;5003519;28;20125;-68
2023/02/24 00:08:39;;;;;;;37.97;24.02;;;;;;;8.30;100.00;100032.56;5002550;28;20030;-68
2023/02/24 00:11:13;;;;;;;38.58;24.20;;;;;;;8.30;100.00;100034.31;5000098;28;20037;-68
2023/02/24 00:13:46;;;;;;;35.60;22.13;;;;;;;8.31;100.00;100022.94;5000259;28;20247;-69
2023/02/24 00:16:15;;;;;;;34.95;21.15;;;;;;;8.28;100.00;100031.72;5003436;28;20061;-69
2023/02/24 00:18:40;;;;;;;37.95;22.70;;;;;;;8.27;100.00;100032.56;5001990;28;20064;-69
2023/02/24 00:21:13;;;;;;;33.05;21.00;;;;;;;8.32;100.00;100036.06;5002067;28;20436;-68
2023/02/24 00:23:39;;;;;;;37.20;22.15;;;;;;;8.27;100.00;100032.56;5000539;28;20034;-69
2023/02/24 00:26:06;;;;;;;39.20;22.80;;;;;;;8.31;100.00;100023.81;5003452;28;20064;-68
2023/02/24 00:28:33;;;;;;;38.35;22.83;;;;;;;8.31;100.00;100018.53;5003827;28;20034;-69
2023/02/24 00:31:12;;;;;;;35.83;21.50;;;;;;;8.30;100.00;100019.41;5003831;28;20246;-68
2023/02/24 00:33:39;;;;;;;37.38;22.55;;;;;;;8.29;100.00;100028.19;4984213;28;20045;-68
2023/02/24 00:36:11;;;;;;;37.05;23.33;;;;;;;8.28;100.00;100026.44;4991071;28;20091;-69
2023/02/24 00:38:38;;;;;;;38.83;22.92;;;;;;;8.31;100.00;100008.03;4993507;28;20069;-69
2023/02/24 00:41:13;;;;;;;38.63;23.40;;;;;;;8.32;100.00;100004.50;4999628;28;20030;-68
2023/02/24 00:43:39;;;;;;;38.63;22.98;;;;;;;8.41;100.00;100002.75;5002306;28;20428;-69
2023/02/24 00:46:10;;;;;;;39.28;23.40;;;;;;;8.46;100.00;100001.84;5005647;28;20039;-68
2023/02/24 00:48:44;;;;;;;37.60;22.67;;;;;;;8.38;100.00;100002.72;5001703;28;20029;-68
2023/02/24 00:51:11;;;;;;;36.55;22.33;;;;;;;8.32;100.00;100007.13;5007410;28;20113;-68
2023/02/24 00:53:39;;;;;;;45.58;26.98;;;;;;;8.28;100.00;100002.78;5003389;28;20164;-68
2023/02/24 00:56:06;;;;;;;39.75;23.40;;;;;;;8.22;100.00;99997.53;5000517;28;20080;-68
2023/02/24 00:58:35;;;;;;;38.22;22.17;;;;;;;8.18;100.00;100011.59;4992654;28;20030;-68
2023/02/24 01:01:03;;;;;;;33.83;20.27;;;;;;;8.10;100.00;99995.00;4992630;28;20032;-68
2023/02/24 01:03:28;;;;;;;37.47;23.73;;;;;;;8.09;100.00;99986.22;4991152;28;20481;-68
2023/02/24 01:05:54;;;;;;;33.55;21.20;;;;;;;8.08;100.00;99991.50;4986084;28;20044;-68
2023/02/24 01:08:22;;;;;;;33.70;21.90;;;;;;;8.19;100.00;99981.78;4991690;28;20077;-68
2023/02/24 01:12:00;;;;;;;31.35;18.88;;;;;;;8.27;100.00;99980.00;4988205;28;20034;-68
2023/02/24 01:13:40;;;;;;;34.70;18.85;;;;;;;8.28;100.00;99980.91;5000988;28;20488;-68
2023/02/24 01:16:05;;;;;;;37.80;22.50;;;;;;;8.28;100.00;99973.88;5004296;28;20033;-68
2023/02/24 01:18:31;;;;;;;29.77;17.73;;;;;;;8.31;100.00;99971.22;5001276;28;20038;-68
2023/02/24 01:20:58;;;;;;;26.50;16.83;;;;;;;8.25;100.00;99984.41;5001603;28;20025;-68
2023/02/24 01:23:23;;;;;;;29.20;17.75;;;;;;;8.20;100.00;99986.19;5001492;28;20035;-68
2023/02/24 01:25:49;;;;;;;31.15;19.77;;;;;;;8.11;100.00;99983.59;4993487;28;20026;-68
2023/02/24 01:28:14;;;;;;;30.70;18.95;;;;;;;8.08;100.00;99983.59;5005635;28;20038;-68
2023/02/24 01:30:42;;;;;;;30.70;17.88;;;;;;;8.00;100.00;99981.03;5004291;28;20088;-68
2023/02/24 01:33:13;;;;;;;32.33;19.52;;;;;;;7.97;100.00;99974.91;4996755;28;20058;-69
2023/02/24 01:35:39;;;;;;;28.83;17.55;;;;;;;7.97;100.00;99974.91;5007609;28;20036;-69
2023/02/24 01:38:04;;;;;;;25.88;15.57;;;;;;;7.98;100.00;99963.50;5003080;28;20065;-68
2023/02/24 01:40:30;;;;;;;28.73;16.95;;;;;;;7.98;100.00;99960.88;5006576;28;20431;-69
2023/02/24 01:42:55;;;;;;;31.40;18.45;;;;;;;7.93;100.00;99967.91;5003131;28;20038;-68
2023/02/24 01:45:24;;;;;;;31.48;17.35;;;;;;;7.92;100.00;99971.44;5006212;28;20053;-68
2023/02/24 01:47:50;;;;;;;26.48;16.92;;;;;;;7.75;100.00;99963.59;4995935;28;20117;-68
2023/02/24 01:50:20;;;;;;;27.58;17.08;;;;;;;7.62;100.00;99966.28;4994567;28;20042;-71
2023/02/24 01:52:49;;;;;;;31.10;16.65;;;;;;;7.52;100.00;99958.41;5005155;28;20038;-71
2023/02/24 01:55:27;;;;;;;27.75;16.70;;;;;;;7.43;100.00;99957.56;4995548;28;20034;-71
2023/02/24 01:57:54;;;;;;;27.27;16.40;;;;;;;7.30;100.00;99944.47;5002635;28;20034;-71
2023/02/24 02:00:36;;;;;;;32.70;16.95;;;;;;;7.29;100.00;99943.63;4988849;28;20157;-71
2023/02/24 02:03:09;;;;;;;32.13;18.40;;;;;;;7.26;100.00;99943.63;5003977;28;20380;-71
2023/02/24 02:05:38;;;;;;;30.20;17.27;;;;;;;7.28;100.00;99933.97;4995999;28;20887;-71
2023/02/24 02:08:03;;;;;;;31.52;17.27;;;;;;;7.22;100.00;99937.50;5001464;28;20034;-71
2023/02/24 02:10:29;;;;;;;29.48;17.52;;;;;;;7.18;100.00;99937.53;4992003;28;20413;-71
2023/02/24 02:12:54;;;;;;;32.85;16.95;;;;;;;7.18;100.00;99937.53;4993836;28;20724;-71
2023/02/24 02:15:20;;;;;;;37.45;18.58;;;;;;;7.19;100.00;99941.88;5005841;28;20034;-71
2023/02/24 02:18:04;;;;;;;31.50;17.25;;;;;;;7.21;100.00;99941.00;5006862;28;20073;-71
2023/02/24 02:21:03;;;;;;;30.20;17.42;;;;;;;7.23;100.00;99934.00;5005745;28;20121;-71
2023/02/24 02:23:52;;;;;;;31.08;16.90;;;;;;;7.22;100.00;99931.38;5021135;28;20496;-71
2023/02/24 02:26:52;;;;;;;28.55;16.13;;;;;;;7.16;100.00;99932.25;5004496;28;20026;-70
2023/02/24 02:29:53;;;;;;;33.53;17.42;;;;;;;7.12;100.00;99938.38;5006950;28;20073;-71
2023/02/24 02:32:38;;;;;;;28.75;16.35;;;;;;;7.14;100.00;99938.38;5005470;28;20474;-70
2023/02/24 02:35:08;;;;;;;31.23;16.25;;;;;;;7.14;100.00;99930.53;4989102;28;20038;-71
2023/02/24 02:37:42;;;;;;;29.63;16.08;;;;;;;7.18;100.00;99934.91;4999788;28;20042;-70
2023/02/24 02:40:36;;;;;;;30.98;16.20;;;;;;;7.16;100.00;99931.41;5001657;28;20499;-70
2023/02/24 02:43:29;;;;;;;32.63;16.50;;;;;;;7.13;100.00;99931.41;5002616;28;20034;-70
2023/02/24 02:46:07;;;;;;;30.13;15.18;;;;;;;7.13;100.00;99936.66;5004871;28;20030;-71
2023/02/24 02:48:42;;;;;;;32.50;15.77;;;;;;;7.10;100.00;99936.63;5005411;28;20034;-70
2023/02/24 02:51:20;;;;;;;30.50;15.80;;;;;;;7.02;100.00;99940.16;5007970;28;20033;-70
2023/02/24 02:54:00;;;;;;;37.65;15.65;;;;;;;6.98;100.00;99927.91;5005675;28;20041;-70
2023/02/24 02:56:35;;;;;;;28.00;13.85;;;;;;;7.02;100.00;99927.03;5018554;28;20106;-70
2023/02/24 02:59:02;;;;;;;31.52;14.38;;;;;;;7.01;100.00;99927.91;5018307;28;20096;-71
2023/02/24 03:01:32;;;;;;;29.25;13.98;;;;;;;7.06;100.00;99929.66;5004084;28;20050;-71
2023/02/24 03:04:05;;;;;;;27.52;14.35;;;;;;;6.98;100.00;99922.66;4992235;28;20121;-71
2023/02/24 03:06:41;;;;;;;35.30;14.77;;;;;;;6.96;100.00;99923.53;5003667;28;20038;-71
2023/02/24 03:09:16;;;;;;;28.35;13.02;;;;;;;6.94;100.00;99910.44;4995302;28;20084;-71
2023/02/24 03:11:54;;;;;;;31.65;13.70;;;;;;;6.87;100.00;99907.84;4984202;28;20030;-71
2023/02/24 03:14:24;;;;;;;31.98;14.40;;;;;;;6.88;100.00;99912.19;4998721;28;20439;-71
2023/02/24 03:16:51;;;;;;;30.38;13.77;;;;;;;6.87;100.00;99903.44;4993478;28;20133;-71
2023/02/24 03:19:29;;;;;;;31.15;12.63;;;;;;;6.87;100.00;99898.22;5002585;28;20105;-71
2023/02/24 03:22:34;;;;;;;29.80;11.75;;;;;;;6.92;100.00;99906.94;4996614;28;20057;-71
2023/02/24 03:25:02;;;;;;;31.13;12.80;;;;;;;6.98;100.00;99896.44;5001524;28;20117;-70
2023/02/24 03:27:49;;;;;;;;;;;;;;;7.05;100.00;99899.03;4994174;28;20057;-71
2023/02/24 03:30:20;;;;;;;28.88;13.48;;;;;;;7.12;100.00;99900.78;4998204;28;19920;-70
2023/02/24 03:32:56;;;;;;;29.40;12.35;;;;;;;7.10;100.00;99889.41;4992760;28;20045;-71
2023/02/24 03:35:26;;;;;;;32.75;13.23;;;;;;;7.15;100.00;99891.16;5019264;28;20128;-71
2023/02/24 03:37:54;;;;;;;31.58;12.95;;;;;;;7.14;100.00;99891.16;4996254;28;20061;-70
2023/02/24 03:40:21;;;;;;;28.52;12.57;;;;;;;7.11;100.00;99889.41;4990077;28;20466;-70
2023/02/24 03:42:51;;;;;;;28.55;14.10;;;;;;;7.09;100.00;99900.78;5001874;28;20062;-70
2023/02/24 03:45:17;;;;;;;29.92;12.88;;;;;;;6.84;100.00;99894.69;5007387;28;20160;-70
2023/02/24 03:47:45;;;;;;;27.92;11.93;;;;;;;6.77;100.00;99893.84;5009120;28;20052;-70
2023/02/24 03:50:13;;;;;;;29.45;12.00;;;;;;;6.58;100.00;99895.59;4993566;28;20033;-70
2023/02/24 03:53:09;;;;;;;28.10;11.82;;;;;;;6.55;100.00;99900.84;4991741;28;20034;-70
2023/02/24 03:55:47;;;;;;;24.35;11.27;;;;;;;6.37;100.00;99891.22;5018010;28;20083;-70
2023/02/24 03:58:23;;;;;;;32.30;11.65;;;;;;;6.21;100.00;99898.22;4997267;28;20034;-71
2023/02/24 04:01:04;;;;;;;23.73;9.95;;;;;;;6.09;100.00;99906.03;4992017;28;20057;-71
2023/02/24 04:03:45;;;;;;;18.88;8.40;;;;;;;5.98;100.00;99899.91;5017242;28;20597;-71
2023/02/24 04:06:40;;;;;;;22.42;9.02;;;;;;;5.89;100.00;99891.13;4991571;28;20799;-71
2023/02/24 04:09:25;;;;;;;21.92;8.02;;;;;;;5.83;100.00;99887.59;4990359;28;20110;-71
2023/02/24 04:12:14;;;;;;;17.20;6.68;;;;;;;5.80;100.00;99890.22;4999069;28;20030;-71
2023/02/24 04:14:49;;;;;;;24.23;8.00;;;;;;;5.74;100.00;99885.84;4998065;28;20542;-71
2023/02/24 04:17:21;;;;;;;19.42;7.35;;;;;;;5.69;100.00;99890.19;4993175;28;20175;-71
2023/02/24 04:19:50;;;;;;;;;;;;;;;5.62;100.00;99899.75;5019592;28;20096;-71
2023/02/24 04:22:23;;;;;;;22.08;8.05;;;;;;;5.59;100.00;99893.63;4999218;28;19913;-71
2023/02/24 04:24:52;;;;;;;21.52;7.47;;;;;;;5.49;100.00;99887.47;4993004;28;20033;-72
2023/02/24 04:27:19;;;;;;;15.68;6.43;;;;;;;5.41;100.00;99894.44;5009798;28;20088;-72
2023/02/24 04:29:51;;;;;;;20.42;6.22;;;;;;;5.41;100.00;99883.97;4991703;28;20112;-72
2023/02/24 04:32:23;;;;;;;21.05;6.18;;;;;;;5.37;100.00;99880.47;4994201;28;20504;-69
2023/02/24 04:34:48;;;;;;;21.20;6.03;;;;;;;5.25;100.00;99891.72;5000059;28;20045;-69
2023/02/24 04:37:14;;;;;;;17.50;5.15;;;;;;;5.15;100.00;99886.44;4992832;28;20026;-70
2023/02/24 04:39:39;;;;;;;14.82;5.05;;;;;;;5.00;100.00;99887.22;4997201;28;20038;-70
2023/02/24 04:42:18;;;;;;;16.40;4.00;;;;;;;4.93;100.00;99877.63;5018763;28;20049;-70
2023/02/24 04:44:45;;;;;;;12.63;2.95;;;;;;;4.88;100.00;99887.16;4986086;28;20038;-70
2023/02/24 04:47:11;;;;;;;8.73;2.25;;;;;;;4.74;100.00;99881.81;5001065;28;20408;-70
2023/02/24 04:49:39;;;;;;;14.98;3.22;;;;;;;4.66;100.00;99876.53;5003531;28;20042;-70
2023/02/24 04:52:07;;;;;;;13.40;2.70;;;;;;;4.57;100.00;99872.13;5005084;28;20408;-70
2023/02/24 04:54:33;;;;;;;15.63;3.30;;;;;;;4.52;100.00;99868.59;4999736;28;20038;-70
2023/02/24 04:56:59;;;;;;;14.13;2.75;;;;;;;4.54;100.00;99872.09;5006490;28;20065;-72
2023/02/24 04:59:25;;;;;;;12.90;2.42;;;;;;;4.52;100.00;99881.66;5000389;28;20034;-70
2023/02/24 05:01:53;;;;;;;9.73;1.67;;;;;;;4.53;100.00;99872.09;5009616;28;20030;-70
2023/02/24 05:04:19;;;;;;;12.80;2.65;;;;;;;4.60;100.00;99884.34;5008624;28;20056;-70
2023/02/24 05:06:45;;;;;;;15.07;2.33;;;;;;;4.62;100.00;99880.00;5009856;28;20042;-70
2023/02/24 05:09:18;;;;;;;7.97;1.38;;;;;;;4.64;100.00;99878.28;5007420;28;20443;-71
2023/02/24 05:11:47;;;;;;;8.48;1.85;;;;;;;4.67;100.00;99872.22;5005458;28;20038;-70
2023/02/24 05:14:15;;;;;;;12.20;3.08;;;;;;;4.71;100.00;99866.13;5004074;28;20501;-69
2023/02/24 05:16:45;;;;;;;15.68;2.42;;;;;;;4.75;100.00;99876.63;5010394;28;20057;-70
2023/02/24 05:21:56;;;;;;;12.48;2.10;;;;;;;4.59;100.00;99865.19;5005960;28;20128;-69
2023/02/24 05:24:24;;;;;;;13.20;2.35;;;;;;;4.62;100.00;99866.94;5004239;28;20077;-69
2023/02/24 05:26:56;;;;;;;16.52;2.78;;;;;;;4.64;100.00;99874.78;5009406;28;20038;-70
2023/02/24 05:29:27;;;;;;;22.08;3.55;;;;;;;4.53;100.00;99862.53;5002901;28;20835;-69
2023/02/24 05:31:53;;;;;;;15.70;2.50;;;;;;;4.48;100.00;99865.94;5003132;28;20045;-70
2023/02/24 05:34:19;;;;;;;10.32;2.08;;;;;;;4.31;100.00;99864.06;5006107;28;20396;-70
2023/02/24 05:36:48;;;;;;;16.63;2.20;;;;;;;4.29;100.00;99865.78;5007293;28;20038;-69
2023/02/24 05:39:18;;;;;;;10.25;1.70;;;;;;;4.18;100.00;99875.28;5004836;28;20064;-70
2023/02/24 05:41:44;;;;;;;14.68;2.05;;;;;;;4.15;100.00;99872.66;5003178;28;20041;-70
2023/02/24 05:44:12;;;;;;;14.18;2.33;;;;;;;4.17;100.00;99866.56;5012441;28;20476;-69
2023/02/24 05:46:43;;;;;;;13.75;1.85;;;;;;;4.13;100.00;99863.91;5008706;28;20522;-70
2023/02/24 05:49:19;;;;;;;17.67;2.03;;;;;;;4.06;100.00;99867.31;5007175;28;20092;-70
2023/02/24 05:51:53;;;;;;;17.35;2.25;;;;;;;4.00;100.00;99873.38;4995634;28;20041;-70
2023/02/24 05:54:31;;;;;;;15.93;1.95;;;;;;;4.01;100.00;99866.41;5007049;28;20085;-70
2023/02/24 05:57:02;;;;;;;14.38;1.70;;;;;;;4.02;100.00;99861.22;5008543;28;20029;-69
2023/02/24 05:59:31;;;;;;;8.55;1.48;;;;;;;3.95;100.00;99865.47;5011393;28;20030;-69
2023/02/24 06:02:05;;;;;;;11.13;1.70;;;;;;;3.98;100.00;99869.00;5006527;28;20104;-70
2023/02/24 06:04:38;;;;;;;12.18;1.73;;;;;;;4.02;100.00;99863.81;5003556;28;20069;-69
2023/02/24 06:07:13;;;;;;;10.30;1.90;;;;;;;4.11;100.00;99868.25;5003805;28;20103;-70
2023/02/24 06:09:41;;;;;;;4.30;0.95;;;;;;;4.14;100.00;99863.06;4999090;28;20053;-69
2023/02/24 06:12:08;;;;;;;11.13;1.65;;;;;;;4.14;100.00;99855.25;5005503;28;20108;-70
2023/02/24 06:14:33;;;;;;;6.82;1.25;;;;;;;4.03;100.00;99862.06;5006405;28;20029;-69
2023/02/24 06:17:01;;;;;;;14.05;1.77;;;;;;;4.06;100.00;99863.00;5003103;28;20045;-69
2023/02/24 06:19:33;;;;;;;13.25;2.80;;;;;;;4.02;100.00;99855.13;4995593;28;20034;-70
2023/02/24 06:22:03;;;;;;;15.30;3.25;;;;;;;4.04;100.00;99858.63;5006484;28;20388;-69
2023/02/24 06:24:30;;;;;;;8.20;1.98;;;;;;;4.11;100.00;99860.41;5001882;28;20391;-69
2023/02/24 06:27:08;;;;;;;13.70;1.65;;;;;;;4.05;100.00;99849.91;5002184;28;20117;-70
2023/02/24 06:29:35;;;;;;;11.98;1.35;;;;;;;4.15;100.00;99864.81;5005104;28;20550;-69
2023/02/24 06:32:07;;;;;;;9.23;1.52;;;;;;;4.15;100.00;99862.19;5006493;28;20461;-69
2023/02/24 06:34:37;;;;;;;11.25;1.80;;;;;;;4.24;100.00;99867.50;5004568;28;20550;-69
2023/02/24 06:37:04;;;;;;;10.65;1.50;;;;;;;4.23;100.00;99857.91;5002901;28;20045;-69
2023/02/24 06:39:31;;;;;;;6.28;1.08;;;;;;;4.30;100.00;99849.28;5011663;28;20081;-69
2023/02/24 06:42:02;;;;;;;11.75;2.42;;;;;;;4.42;100.00;99855.47;4992830;28;20125;-69
2023/02/24 06:44:29;;;;;;;4.35;0.68;;;;;;;4.55;100.00;99845.09;5006181;28;20113;-69
2023/02/24 06:46:55;;;;;;;10.52;1.67;;;;;;;4.59;100.00;99849.50;5007058;28;20073;-69
2023/02/24 06:49:21;;;;;;;7.18;1.08;;;;;;;4.59;100.00;99843.41;5005581;28;20116;-69
2023/02/24 06:51:47;;;;;;;9.10;1.65;;;;;;;4.59;100.00;99846.03;5003375;28;20042;-69
2023/02/24 06:54:14;;;;;;;9.05;1.05;;;;;;;4.57;100.00;99837.28;5001287;28;20394;-69
2023/02/24 06:56:40;;;;;;;17.60;1.73;;;;;;;4.52;100.00;99841.59;5003573;28;20460;-69
2023/02/24 06:59:06;;;;;;;11.98;1.20;;;;;;;4.55;100.00;99844.22;5002983;28;20485;-69
2023/02/24 07:01:33;;;;;;;14.05;2.30;;;;;;;4.60;100.00;99840.78;5008159;28;20068;-69
2023/02/24 07:04:16;;;;;;;9.23;1.00;;;;;;;4.58;100.00;99829.47;4967585;28;1007122;-69
2023/02/24 07:06:46;;;;;;;6.10;1.10;;;;;;;4.59;100.00;99830.34;5005369;28;20034;-70
2023/02/24 07:09:15;;;;;;;11.18;1.30;;;;;;;4.49;100.00;99825.91;5008218;28;20034;-69
2023/02/24 07:11:45;;;;;;;10.90;1.60;;;;;;;4.53;100.00;99817.22;5009111;28;20391;-69
2023/02/24 07:14:12;;;;;;;5.80;1.08;;;;;;;4.67;100.00;99819.94;5001643;28;20189;-69
2023/02/24 07:16:41;;;;;;;7.03;1.30;;;;;;;4.63;100.00;99819.03;5003567;28;20041;-69
2023/02/24 07:19:12;;;;;;;7.07;1.27;;;;;;;4.74;100.00;99816.47;5003364;28;20033;-69
2023/02/24 07:21:39;;;;;;;9.55;0.80;;;;;;;4.79;100.00;99820.00;5080363;22;20127;-76
2023/02/24 07:24:07;;;;;;;15.43;1.98;;;;;;;4.87;100.00;99818.28;5041084;28;20039;-77
2023/02/24 07:26:32;;;;;;;7.03;1.88;;;;;;;4.86;100.00;99810.47;5042712;28;20546;-77
2023/02/24 07:28:58;;;;;;;11.90;1.92;;;;;;;4.99;100.00;99807.03;5041270;28;20109;-77
2023/02/24 07:31:24;;;;;;;9.90;1.48;;;;;;;5.14;100.00;99801.88;5034845;28;20041;-77
2023/02/24 07:33:56;;;;;;;12.15;1.63;;;;;;;5.23;100.00;99796.66;5027763;28;20056;-77
2023/02/24 07:36:22;;;;;;;8.15;1.30;;;;;;;5.14;100.00;99801.00;5027677;28;20080;-77
2023/02/24 07:38:53;;;;;;;15.20;2.38;;;;;;;5.00;100.00;99793.97;5028944;28;20033;-77
2023/02/24 07:41:21;;;;;;;13.40;2.13;;;;;;;5.00;100.00;99793.06;5009999;28;20407;-77
2023/02/24 07:43:51;;;;;;;12.05;1.30;;;;;;;5.01;100.00;99792.22;5025136;28;20029;-77
2023/02/24 07:46:18;;;;;;;10.88;2.10;;;;;;;5.01;100.00;99794.84;5022494;28;20041;-77
2023/02/24 07:48:45;;;;;;;22.25;2.60;;;;;;;4.93;100.00;99799.16;5019625;28;20044;-77
2023/02/24 07:51:15;;;;;;;8.25;1.45;;;;;;;4.93;100.00;99781.72;5013311;28;20396;-77
2023/02/24 07:53:42;;;;;;;11.52;1.70;;;;;;;5.01;100.00;99776.53;5027236;28;20400;-76
2023/02/24 07:56:12;;;;;;;11.90;2.28;;;;;;;5.17;100.00;99778.34;5020564;28;20140;-76
2023/02/24 07:58:43;;;;;;;8.52;1.50;;;;;;;5.18;99.89;99761.75;5021858;28;20026;-76
2023/02/24 08:01:16;;;;;;;14.93;2.65;;;;;;;5.21;99.26;99760.91;5027185;28;20033;-76
2023/02/24 08:03:43;;;;;;;10.60;2.20;;;;;;;5.34;98.36;99764.44;5023657;28;20041;-76
2023/02/24 08:06:14;;;;;;;12.10;2.97;;;;;;;5.39;97.81;99755.72;5022169;28;20133;-76
2023/02/24 08:08:56;;;;;;;12.40;1.70;;;;;;;5.49;96.53;99757.50;5027230;28;20025;-76
2023/02/24 08:11:33;;;;;;;9.80;1.45;;;;;;;5.40;96.28;99751.38;5021838;28;20062;-76
2023/02/24 08:14:01;;;;;;;10.20;1.80;;;;;;;5.46;97.47;99751.38;5023726;28;20033;-77
2023/02/24 08:16:38;;;;;;;12.65;1.98;;;;;;;5.62;97.56;99750.53;5019224;28;20041;-74
2023/02/24 08:19:09;;;;;;;14.68;2.28;;;;;;;5.65;98.10;99740.06;5024399;28;20071;-74
2023/02/24 08:21:39;;;;;;;12.98;1.58;;;;;;;5.76;97.84;99720.88;5019316;28;20531;-74
2023/02/24 08:24:16;;;;;;;7.93;1.55;;;;;;;5.86;97.12;99717.38;5029258;28;20041;-74
2023/02/24 08:26:52;;;;;;;10.68;1.70;;;;;;;5.86;96.10;99712.16;5021848;28;20025;-74
2023/02/24 08:29:19;;;;;;;9.63;1.65;;;;;;;5.88;95.73;99713.91;5023104;28;20045;-74
2023/02/24 08:31:45;;;;;;;10.18;1.90;;;;;;;5.79;94.09;99708.69;5022379;28;20099;-74
2023/02/24 08:34:14;;;;;;;10.27;1.75;;;;;;;5.82;95.05;99708.66;5023315;28;20030;-74
2023/02/24 08:36:45;;;;;;;9.38;2.38;;;;;;;5.79;95.06;99708.69;5023760;28;20044;-74
2023/02/24 08:39:13;;;;;;;6.05;1.27;;;;;;;5.88;94.78;99707.78;5021652;28;20026;-74
2023/02/24 08:41:44;;;;;;;6.68;1.58;;;;;;;5.91;95.52;99705.16;5019006;28;20094;-74
2023/02/24 08:44:11;;;;;;;12.35;1.65;;;;;;;5.88;94.94;99708.66;5021758;28;20044;-74
2023/02/24 08:46:39;;;;;;;13.10;1.90;;;;;;;5.84;95.49;99704.31;5020339;28;20030;-74
2023/02/24 08:49:09;;;;;;;11.30;1.88;;;;;;;5.87;94.34;99695.59;5023029;28;20061;-74
2023/02/24 08:51:42;;;;;;;13.07;2.00;;;;;;;5.85;94.45;99692.09;5026500;28;20044;-74
2023/02/24 08:54:15;;;;;;;9.95;1.88;;;;;;;5.96;95.89;99692.97;5024780;28;20064;-74
2023/02/24 08:56:53;;;;;;;15.20;2.67;;;;;;;5.79;93.29;99686.81;5022546;28;20535;-74
2023/02/24 08:59:27;;;;;;;9.93;1.70;;;;;;;5.95;95.00;99683.38;5022399;28;20104;-75
2023/02/24 09:02:17;;;;;;;10.75;2.10;;;;;;;6.10;94.55;99680.75;5002420;28;20062;-74
2023/02/24 09:04:44;;;;;;;13.02;1.70;;;;;;;6.20;93.49;99665.84;5024914;28;20113;-75
2023/02/24 09:07:34;;;;;;;12.43;2.13;;;;;;;6.13;92.70;99667.63;5004414;28;20112;-75
2023/02/24 09:10:00;;;;;;;15.85;1.75;;;;;;;6.12;93.20;99668.50;5018894;28;20071;-75
2023/02/24 09:12:28;;;;;;;12.52;2.35;;;;;;;6.26;93.39;99664.97;5028801;28;20037;-75
2023/02/24 09:15:06;;;;;;;11.63;2.90;;;;;;;6.14;94.76;99666.75;5024058;28;20029;-74
2023/02/24 09:23:02;;;;;;;;;;;;;;;6.23;91.13;99652.75;5026689;28;20061;-75
2023/02/24 09:25:48;;;;;;;9.05;1.77;;;;;;;6.35;91.66;99644.00;5024129;28;19913;-75
2023/02/24 09:28:23;;;;;;;15.07;2.90;;;;;;;6.22;89.84;99640.53;5009682;28;20038;-75
2023/02/24 09:30:54;;;;;;;10.50;1.70;;;;;;;6.32;89.49;99630.91;5019280;28;20507;-75
2023/02/24 09:33:21;;;;;;;10.88;2.65;;;;;;;6.45;89.89;99634.34;5022741;28;20121;-75
2023/02/24 09:36:01;;;;;;;11.32;2.03;;;;;;;6.47;91.66;99625.63;5025432;28;20033;-75
2023/02/24 09:39:08;;;;;;;11.88;1.92;;;;;;;6.69;91.43;99605.41;5022723;28;20068;-75
2023/02/24 09:44:36;;;;;;;12.80;1.95;;;;;;;7.11;89.56;99597.28;5001231;28;20104;-75
2023/02/24 09:47:38;;;;;;;12.75;1.90;;;;;;;6.98;86.90;99589.47;5024255;28;20041;-75
2023/02/24 09:50:23;;;;;;;9.03;2.00;;;;;;;7.32;87.04;99588.38;5029689;28;20040;-75
2023/02/24 09:52:52;;;;;;;14.88;2.30;;;;;;;7.25;86.28;99579.66;5016072;28;20292;-75
2023/02/24 09:55:44;;;;;;;12.65;2.75;;;;;;;7.31;85.97;99582.25;5024855;28;20048;-75
2023/02/24 09:58:46;;;;;;;17.10;2.83;;;;;;;7.13;86.44;99575.41;5025330;28;20034;-75
2023/02/24 10:01:34;;;;;;;14.60;4.05;;;;;;;7.20;88.11;99570.97;5025639;28;20049;-75
2023/02/24 10:04:28;;;;;;;14.07;3.78;;;;;;;7.30;88.53;99566.50;5022469;28;20489;-75
2023/02/24 10:06:57;;;;;;;12.00;3.50;;;;;;;7.25;89.82;99559.53;5024910;28;20515;-74
2023/02/24 10:09:33;;;;;;;14.73;3.67;;;;;;;7.05;88.86;99555.31;5027287;28;20068;-75
2023/02/24 10:12:05;;;;;;;15.32;4.05;;;;;;;6.78;89.33;99552.88;5003506;28;20106;-75
2023/02/24 10:14:52;;;;;;;;;;;;;;;6.67;89.88;99549.47;5027001;28;20061;-75
2023/02/24 10:17:23;;;;;;;16.15;3.58;;;;;;;6.76;90.23;99544.19;5027047;28;19992;-75
2023/02/24 10:19:59;;;;;;;16.45;3.50;;;;;;;6.85;88.98;99534.50;5028345;28;20391;-75
2023/02/24 10:22:49;;;;;;;12.45;3.80;;;;;;;6.88;89.41;99532.72;5021917;28;20396;-75
2023/02/24 10:25:24;;;;;;;13.75;3.20;;;;;;;6.98;88.64;99529.16;5022265;28;20050;-75
2023/02/24 10:28:34;;;;;;;14.50;3.90;;;;;;;7.06;88.17;99531.72;5025346;28;20043;-75
2023/02/24 10:31:28;;;;;;;10.68;3.85;;;;;;;6.92;87.00;99518.72;5011333;28;20034;-75
2023/02/24 10:34:05;;;;;;;14.77;3.95;;;;;;;7.04;87.16;99517.72;5025320;28;20048;-75
2023/02/24 10:36:38;;;;;;;11.32;3.20;;;;;;;7.25;86.57;99514.06;5025703;28;20025;-74
2023/02/24 10:39:19;;;;;;;12.07;3.05;;;;;;;7.16;84.58;99506.28;5024634;28;20034;-75
2023/02/24 10:41:56;;;;;;;10.38;3.10;;;;;;;7.27;84.34;99508.81;5025495;28;20080;-75
2023/02/24 10:44:34;;;;;;;14.13;3.78;;;;;;;7.35;85.58;99491.22;5011711;28;20117;-75
2023/02/24 10:47:10;;;;;;;12.73;2.88;;;;;;;7.30;83.41;99493.88;5005201;28;20057;-75
2023/02/24 10:50:11;;;;;;;12.85;4.07;;;;;;;7.23;84.20;99481.69;5026288;28;20522;-75
2023/02/24 10:55:52;;;;;;;9.88;3.50;;;;;;;7.37;86.24;99464.06;5022315;28;20400;-75
2023/02/24 10:58:43;;;;;;;9.15;3.03;;;;;;;7.23;83.53;99460.72;5021724;28;20492;-76
2023/02/24 11:01:39;;;;;;;11.68;3.60;;;;;;;7.39;85.11;99448.31;5024103;28;20080;-75
2023/02/24 11:06:52;;;;;;;8.75;3.50;;;;;;;7.34;85.15;99442.25;5020674;28;20073;-75
2023/02/24 11:17:57;;;;;;;10.73;4.00;;;;;;;7.23;86.61;99409.13;4970028;28;20535;-76
2023/02/24 11:20:41;;;;;;;11.00;4.10;;;;;;;7.08;87.33;99414.50;5023301;28;20062;-75
2023/02/24 11:23:13;;;;;;;13.13;4.70;;;;;;;6.91;87.74;99412.03;5021381;28;20034;-75
2023/02/24 11:25:41;;;;;;;8.88;4.28;;;;;;;6.87;87.37;99404.22;5021400;28;20045;-75
2023/02/24 11:28:34;;;;;;;12.32;4.60;;;;;;;6.86;89.25;99407.72;5026812;28;20030;-76
2023/02/24 11:31:08;;;;;;;;;;;;;;;6.93;89.75;99394.53;5029819;28;20040;-75
2023/02/24 11:33:50;;;;;;;13.20;4.75;;;;;;;7.07;89.85;99388.28;5025908;28;19944;-75
2023/02/24 11:36:32;;;;;;;13.98;4.00;;;;;;;7.03;89.17;99382.22;5023105;28;20037;-75
2023/02/24 11:39:35;;;;;;;15.65;4.53;;;;;;;6.89;89.65;99371.88;5025099;28;20056;-75
2023/02/24 11:42:05;;;;;;;;;;;;;;;6.82;90.79;99374.56;5024113;28;20091;-75
2023/02/24 11:44:45;;;;;;;14.85;4.85;;;;;;;6.79;90.88;99365.81;5020644;28;19913;-75
2023/02/24 11:47:17;;;;;;;9.63;4.30;;;;;;;6.72;92.01;99353.66;5024834;28;20124;-74
2023/02/24 11:49:49;;;;;;;10.23;4.75;;;;;;;6.84;91.51;99355.31;5026893;28;20033;-74
2023/02/24 11:52:19;;;;;;;;;;;;;;;6.81;90.04;99357.94;5022979;28;20061;-75
2023/02/24 11:54:51;;;;;;;12.98;5.15;;;;;;;6.57;92.00;99346.78;5024490;28;19917;-74
2023/02/24 11:57:21;;;;;;;13.73;4.55;;;;;;;6.58;92.74;99345.06;5021282;28;20042;-75
2023/02/24 12:00:19;;;;;;;12.60;4.53;;;;;;;6.65;91.92;99344.09;5025421;28;20029;-75
2023/02/24 12:03:03;;;;;;;14.88;4.63;;;;;;;6.57;91.57;99330.19;5029324;28;20033;-75
2023/02/24 12:05:40;;;;;;;16.02;5.50;;;;;;;6.52;92.40;99325.00;5022867;28;20403;-75
2023/02/24 12:08:25;;;;;;;15.15;5.10;;;;;;;6.52;93.81;99314.53;5022064;28;20405;-75
2023/02/24 12:10:55;;;;;;;13.55;4.40;;;;;;;6.65;93.13;99309.16;5024238;28;20042;-75
2023/02/24 12:13:43;;;;;;;17.85;4.85;;;;;;;6.61;92.86;99302.22;5023320;28;20037;-75
2023/02/24 12:16:27;;;;;;;15.73;4.20;;;;;;;6.67;92.76;99296.91;5023045;28;20045;-75
2023/02/24 12:19:28;;;;;;;10.82;4.05;;;;;;;6.61;91.98;99302.22;5023365;28;20640;-75
2023/02/24 12:22:12;;;;;;;12.18;3.92;;;;;;;6.48;91.71;99298.84;5014940;28;20516;-75